Time;durP1;ratioP1;P1;durP2;ratioP2;P2;SDS_P1;SDS_P2;PMS_P1;PMS_P2;Temp;Humidity;BMP_temperature;BMP_pressure;BME280_temperature;BME280_humidity;BME280_pressure;Samples;Min_cycle;Max_cycle;Signal;HPM_P1;HPM_P2
2021/08/22 00:00:01;;;;;;;22.73;11.35;;;;;;;;;;5078094;28;20024;-88
2021/08/22 00:02:27;;;;;;;27.83;11.35;;;;;;;;;;5078442;28;20434;-90
2021/08/22 00:04:53;;;;;;;23.23;10.80;;;;;;;;;;5077335;28;20127;-91
2021/08/22 00:07:19;;;;;;;23.33;11.07;;;;;;;;;;5078206;28;20318;-89
2021/08/22 00:09:45;;;;;;;22.42;11.07;;;;;;;;;;5077863;28;20331;-90
2021/08/22 00:12:11;;;;;;;23.88;12.90;;;;;;;;;;5077682;28;20054;-90
2021/08/22 00:14:37;;;;;;;31.48;13.52;;;;;;;;;;5079292;28;20024;-90
2021/08/22 00:17:03;;;;;;;36.10;12.82;;;;;;;;;;5077957;28;20032;-91
2021/08/22 00:19:29;;;;;;;26.58;10.88;;;;;;;;;;5078418;28;20103;-89
2021/08/22 00:21:55;;;;;;;36.88;10.60;;;;;;;;;;5077711;28;20033;-91
2021/08/22 00:24:21;;;;;;;32.17;10.27;;;;;;;;;;5078687;28;20021;-89
2021/08/22 00:26:47;;;;;;;15.55;9.18;;;;;;;;;;5078620;28;20021;-87
2021/08/22 00:29:13;;;;;;;21.65;9.23;;;;;;;;;;5094285;28;20033;-89
2021/08/22 00:31:39;;;;;;;20.35;9.25;;;;;;;;;;5078723;28;20063;-88
2021/08/22 00:34:06;;;;;;;24.08;9.98;;;;;;;;;;5078749;28;20029;-89
2021/08/22 00:36:32;;;;;;;19.00;9.98;;;;;;;;;;5094405;28;20021;-89
2021/08/22 00:38:58;;;;;;;23.38;10.70;;;;;;;;;;5078414;28;20031;-90
2021/08/22 00:41:24;;;;;;;21.45;11.48;;;;;;;;;;5078468;28;20035;-89
2021/08/22 00:43:50;;;;;;;20.02;11.25;;;;;;;;;;5078537;28;20044;-89
2021/08/22 00:46:17;;;;;;;17.30;10.90;;;;;;;;;;5077367;28;20031;-89
2021/08/22 00:48:44;;;;;;;22.83;11.00;;;;;;;;;;5076978;28;20025;-89
2021/08/22 00:51:13;;;;;;;15.80;10.57;;;;;;;;;;5077355;28;20017;-89
2021/08/22 00:53:39;;;;;;;20.67;10.38;;;;;;;;;;5078232;28;20085;-87
2021/08/22 00:56:06;;;;;;;17.33;10.27;;;;;;;;;;5078049;28;20063;-87
2021/08/22 00:58:32;;;;;;;19.58;9.82;;;;;;;;;;5078557;28;20021;-88
2021/08/22 01:00:59;;;;;;;18.98;9.05;;;;;;;;;;5077861;28;20032;-89
2021/08/22 01:03:43;;;;;;;17.40;9.52;;;;;;;;;;5077673;28;20055;-89
2021/08/22 01:06:12;;;;;;;17.38;8.75;;;;;;;;;;5078019;28;20040;-87
2021/08/22 01:08:42;;;;;;;17.88;9.63;;;;;;;;;;5093976;28;20036;-90
2021/08/22 01:11:11;;;;;;;20.70;9.40;;;;;;;;;;5078016;28;20029;-90
2021/08/22 01:13:39;;;;;;;17.20;9.15;;;;;;;;;;5077852;28;20033;-91
2021/08/22 01:16:07;;;;;;;16.50;9.65;;;;;;;;;;5093842;28;20055;-89
2021/08/22 01:18:35;;;;;;;31.45;9.82;;;;;;;;;;5077799;28;20027;-87
2021/08/22 01:21:24;;;;;;;17.02;9.43;;;;;;;;;;5077476;28;20028;-88
2021/08/22 01:23:53;;;;;;;16.92;8.75;;;;;;;;;;5036062;28;20041;-88
2021/08/22 01:26:20;;;;;;;14.98;8.82;;;;;;;;;;5036200;28;20363;-90
2021/08/22 01:28:46;;;;;;;15.40;8.50;;;;;;;;;;5036114;28;20049;-90
2021/08/22 01:31:17;;;;;;;17.90;8.55;;;;;;;;;;5019395;28;20125;-90
2021/08/22 01:33:43;;;;;;;16.25;8.73;;;;;;;;;;5036057;28;20407;-90
2021/08/22 01:36:10;;;;;;;16.77;8.98;;;;;;;;;;5019133;28;20061;-90
2021/08/22 01:38:36;;;;;;;16.55;8.30;;;;;;;;;;5036035;28;20293;-90
2021/08/22 01:41:03;;;;;;;16.30;8.98;;;;;;;;;;5019407;28;20041;-90
2021/08/22 01:43:29;;;;;;;15.23;8.75;;;;;;;;;;5019283;28;20076;-91
2021/08/22 01:45:56;;;;;;;23.48;9.23;;;;;;;;;;5019423;28;20029;-91
2021/08/22 01:48:23;;;;;;;14.80;8.98;;;;;;;;;;5036035;28;20026;-90
2021/08/22 01:50:49;;;;;;;18.00;9.25;;;;;;;;;;5035994;28;20021;-91
2021/08/22 01:53:15;;;;;;;18.55;9.40;;;;;;;;;;5019354;28;20128;-91
2021/08/22 01:55:42;;;;;;;19.05;10.10;;;;;;;;;;5035676;28;20032;-90
2021/08/22 01:58:08;;;;;;;25.65;10.30;;;;;;;;;;5035897;28;20033;-90
2021/08/22 02:00:34;;;;;;;20.35;10.40;;;;;;;;;;5053060;28;20037;-91
2021/08/22 02:03:30;;;;;;;23.67;10.50;;;;;;;;;;5077234;28;20053;-90
2021/08/22 02:05:59;;;;;;;19.38;10.50;;;;;;;;;;5038789;28;20128;-89
2021/08/22 02:08:31;;;;;;;15.73;9.90;;;;;;;;;;5055625;28;20070;-90
2021/08/22 02:11:03;;;;;;;18.30;9.52;;;;;;;;;;5055598;28;20112;-90
2021/08/22 02:13:33;;;;;;;19.05;9.70;;;;;;;;;;5038893;28;20128;-89
2021/08/22 02:16:00;;;;;;;16.73;9.60;;;;;;;;;;5038386;28;20043;-89
2021/08/22 02:18:26;;;;;;;20.27;9.40;;;;;;;;;;5055606;28;20083;-90
2021/08/22 02:20:53;;;;;;;14.80;9.10;;;;;;;;;;5038656;28;20045;-92
2021/08/22 02:23:19;;;;;;;18.88;9.70;;;;;;;;;;5038806;28;20124;-92
2021/08/22 02:25:45;;;;;;;21.48;9.95;;;;;;;;;;5055322;28;20029;-90
2021/08/22 02:28:11;;;;;;;23.88;11.45;;;;;;;;;;5042371;28;20025;-91
2021/08/22 02:30:38;;;;;;;22.02;10.07;;;;;;;;;;5059208;28;20120;-90
2021/08/22 02:33:05;;;;;;;24.77;10.02;;;;;;;;;;5059287;28;20028;-88
2021/08/22 02:35:31;;;;;;;25.00;9.95;;;;;;;;;;5059236;28;20036;-90
2021/08/22 02:37:57;;;;;;;26.40;9.90;;;;;;;;;;5042730;28;20116;-89
2021/08/22 02:40:24;;;;;;;24.80;9.65;;;;;;;;;;5059157;28;20040;-93
2021/08/22 02:42:50;;;;;;;18.50;8.63;;;;;;;;;;5075014;28;20327;-90
2021/08/22 02:45:16;;;;;;;21.25;9.93;;;;;;;;;;5096466;28;20025;-90
2021/08/22 02:47:42;;;;;;;15.35;9.00;;;;;;;;;;5080546;28;20025;-92
2021/08/22 02:50:08;;;;;;;14.82;9.65;;;;;;;;;;5080773;28;20024;-92
2021/08/22 02:52:34;;;;;;;17.30;9.82;;;;;;;;;;5096607;28;20150;-93
2021/08/22 02:55:01;;;;;;;16.55;9.75;;;;;;;;;;5080342;28;20453;-92
2021/08/22 02:57:27;;;;;;;21.85;9.48;;;;;;;;;;5096392;28;20096;-90
2021/08/22 02:59:53;;;;;;;18.50;10.73;;;;;;;;;;5096104;28;20316;-90
2021/08/22 03:02:19;;;;;;;17.92;9.43;;;;;;;;;;5079300;28;20056;-92
2021/08/22 03:04:45;;;;;;;20.75;10.02;;;;;;;;;;5080269;28;20020;-92
2021/08/22 03:07:11;;;;;;;20.52;10.65;;;;;;;;;;5079207;28;20067;-84
2021/08/22 03:09:37;;;;;;;19.77;10.43;;;;;;;;;;5079341;28;20029;-89
2021/08/22 03:12:03;;;;;;;16.48;10.38;;;;;;;;;;5080287;28;20044;-89
2021/08/22 03:14:29;;;;;;;23.80;11.18;;;;;;;;;;5080085;28;20069;-91
2021/08/22 03:16:55;;;;;;;16.98;10.65;;;;;;;;;;5080001;28;20027;-91
2021/08/22 03:19:22;;;;;;;19.42;11.10;;;;;;;;;;5080267;28;20035;-90
2021/08/22 03:21:48;;;;;;;21.17;11.77;;;;;;;;;;5080033;28;20048;-91
2021/08/22 03:24:14;;;;;;;18.50;10.23;;;;;;;;;;5078992;28;20047;-91
2021/08/22 03:26:40;;;;;;;19.60;10.70;;;;;;;;;;5079985;28;20025;-92
2021/08/22 03:29:06;;;;;;;22.13;10.20;;;;;;;;;;5078534;28;20033;-92
2021/08/22 03:31:32;;;;;;;17.63;11.18;;;;;;;;;;5080087;28;20036;-92
2021/08/22 03:33:58;;;;;;;16.45;9.20;;;;;;;;;;5079743;28;20036;-91
2021/08/22 03:36:24;;;;;;;20.45;10.05;;;;;;;;;;5079980;28;20107;-92
2021/08/22 03:38:51;;;;;;;23.15;9.13;;;;;;;;;;5079736;28;20059;-94
2021/08/22 03:41:17;;;;;;;17.52;9.98;;;;;;;;;;5095643;28;20025;-95
2021/08/22 03:43:43;;;;;;;18.05;10.80;;;;;;;;;;5079686;28;20425;-94
2021/08/22 03:46:09;;;;;;;18.90;10.80;;;;;;;;;;5079579;28;20020;-94
2021/08/22 03:48:35;;;;;;;21.77;10.27;;;;;;;;;;5079432;28;20020;-92
2021/08/22 03:51:01;;;;;;;17.65;9.35;;;;;;;;;;5079406;28;20020;-90
2021/08/22 03:53:27;;;;;;;19.30;9.95;;;;;;;;;;5079300;28;20042;-90
2021/08/22 03:55:53;;;;;;;22.05;10.27;;;;;;;;;;5079498;28;20040;-90
2021/08/22 03:58:19;;;;;;;14.10;9.95;;;;;;;;;;5078330;28;20166;-91
2021/08/22 04:00:46;;;;;;;17.63;10.00;;;;;;;;;;5079595;28;20033;-91
2021/08/22 04:03:12;;;;;;;17.02;9.90;;;;;;;;;;5078123;28;20049;-90
2021/08/22 04:05:38;;;;;;;23.05;10.23;;;;;;;;;;5094754;28;20082;-89
2021/08/22 04:08:04;;;;;;;21.75;10.38;;;;;;;;;;5078965;28;20347;-90
2021/08/22 04:10:31;;;;;;;27.70;9.82;;;;;;;;;;5079002;28;20020;-89
2021/08/22 04:12:57;;;;;;;17.20;9.55;;;;;;;;;;5079066;28;20484;-90
2021/08/22 04:15:24;;;;;;;21.58;10.48;;;;;;;;;;5079001;28;20024;-89
2021/08/22 04:17:50;;;;;;;22.00;10.00;;;;;;;;;;5078908;28;20021;-89
2021/08/22 04:20:16;;;;;;;18.13;9.07;;;;;;;;;;5079167;28;20028;-93
2021/08/22 04:22:42;;;;;;;19.35;9.35;;;;;;;;;;5094805;28;20029;-94
2021/08/22 04:25:10;;;;;;;16.10;9.38;;;;;;;;;;5078790;28;20411;-93
2021/08/22 04:27:36;;;;;;;23.90;9.88;;;;;;;;;;5094776;28;20116;-94
2021/08/22 04:30:03;;;;;;;24.25;10.45;;;;;;;;;;5078614;28;20020;-93
2021/08/22 04:32:29;;;;;;;15.73;9.23;;;;;;;;;;5078511;28;20032;-92
2021/08/22 04:34:55;;;;;;;17.17;10.05;;;;;;;;;;5078589;28;20051;-91
2021/08/22 04:37:21;;;;;;;20.88;10.18;;;;;;;;;;5077598;28;20020;-93
2021/08/22 04:39:47;;;;;;;17.40;9.73;;;;;;;;;;5077572;28;20024;-94
2021/08/22 04:42:13;;;;;;;23.55;9.82;;;;;;;;;;5094450;28;20051;-93
2021/08/22 04:44:39;;;;;;;23.67;10.25;;;;;;;;;;5078143;28;20031;-93
2021/08/22 04:47:05;;;;;;;25.92;10.93;;;;;;;;;;5078282;28;20024;-90
2021/08/22 04:49:32;;;;;;;33.17;10.57;;;;;;;;;;5076928;28;20021;-91
2021/08/22 04:51:58;;;;;;;29.30;10.63;;;;;;;;;;5078307;28;20033;-91
2021/08/22 04:54:25;;;;;;;32.75;11.32;;;;;;;;;;5078420;28;20024;-91
2021/08/22 04:56:51;;;;;;;26.80;11.40;;;;;;;;;;5077628;28;20359;-92
2021/08/22 04:59:17;;;;;;;29.13;10.90;;;;;;;;;;5078204;28;20020;-93
2021/08/22 05:01:43;;;;;;;30.58;11.25;;;;;;;;;;5077786;28;20040;-90
2021/08/22 05:04:09;;;;;;;21.42;9.15;;;;;;;;;;5077653;28;20036;-90
2021/08/22 05:06:36;;;;;;;22.40;10.68;;;;;;;;;;5078309;28;20024;-90
2021/08/22 05:09:02;;;;;;;21.70;9.13;;;;;;;;;;5078211;28;20021;-90
2021/08/22 05:11:28;;;;;;;19.15;8.95;;;;;;;;;;5077907;28;20031;-91
2021/08/22 05:13:54;;;;;;;17.88;9.10;;;;;;;;;;5077877;28;20021;-90
2021/08/22 05:16:20;;;;;;;15.52;8.90;;;;;;;;;;5077903;28;20017;-93
2021/08/22 05:18:46;;;;;;;17.55;9.15;;;;;;;;;;5077853;28;20422;-93
2021/08/22 05:21:12;;;;;;;18.17;9.25;;;;;;;;;;5078038;28;20074;-94
2021/08/22 05:23:38;;;;;;;18.17;10.05;;;;;;;;;;5077935;28;20104;-92
2021/08/22 05:26:04;;;;;;;18.20;10.00;;;;;;;;;;5077625;28;20032;-95
2021/08/22 05:28:30;;;;;;;25.33;9.57;;;;;;;;;;5076832;28;20024;-93
2021/08/22 05:30:56;;;;;;;21.08;10.23;;;;;;;;;;5077789;28;20078;-93
2021/08/22 05:33:22;;;;;;;21.60;9.32;;;;;;;;;;5077560;28;20017;-93
2021/08/22 05:35:48;;;;;;;22.73;10.32;;;;;;;;;;5077357;28;20406;-88
2021/08/22 05:38:14;;;;;;;19.15;9.80;;;;;;;;;;5076850;28;20032;-88
2021/08/22 05:40:41;;;;;;;20.85;10.07;;;;;;;;;;5077412;28;20028;-89
2021/08/22 05:43:07;;;;;;;22.05;10.20;;;;;;;;;;5077761;28;20049;-92
2021/08/22 05:45:33;;;;;;;23.13;12.15;;;;;;;;;;5094035;28;20032;-93
2021/08/22 05:47:59;;;;;;;23.02;10.52;;;;;;;;;;5096913;28;20031;-88
2021/08/22 05:50:25;;;;;;;22.27;12.50;;;;;;;;;;5097955;28;20016;-88
2021/08/22 05:52:51;;;;;;;17.20;10.75;;;;;;;;;;5081166;28;20028;-91
2021/08/22 05:55:17;;;;;;;16.05;10.07;;;;;;;;;;5077743;28;20040;-95
2021/08/22 05:57:43;;;;;;;30.42;10.57;;;;;;;;;;5077554;28;20031;-91
2021/08/22 06:00:10;;;;;;;21.00;11.57;;;;;;;;;;5077312;28;20418;-91
2021/08/22 06:02:36;;;;;;;23.27;12.20;;;;;;;;;;5078978;28;20048;-91
2021/08/22 06:05:03;;;;;;;19.65;12.48;;;;;;;;;;5081411;28;20029;-95
2021/08/22 06:07:29;;;;;;;29.20;18.27;;;;;;;;;;5080601;28;20024;-95
2021/08/22 06:09:55;;;;;;;24.25;12.85;;;;;;;;;;5080478;28;20029;-93
2021/08/22 06:14:57;;;;;;;18.25;12.77;;;;;;;;;;5161034;22;20052;-95
2021/08/22 06:17:24;;;;;;;24.92;15.13;;;;;;;;;;5042544;28;20048;-95
2021/08/22 06:19:50;;;;;;;25.98;13.38;;;;;;;;;;5023915;28;20076;-96
2021/08/22 06:22:16;;;;;;;26.98;14.55;;;;;;;;;;5041375;28;20021;-93
2021/08/22 06:24:42;;;;;;;22.52;12.45;;;;;;;;;;5023586;28;20030;-91
2021/08/22 06:27:08;;;;;;;17.98;11.85;;;;;;;;;;5041304;28;20017;-94
2021/08/22 06:29:34;;;;;;;32.63;20.08;;;;;;;;;;5041107;28;20032;-91
2021/08/22 06:32:00;;;;;;;49.15;32.25;;;;;;;;;;5023471;28;20063;-91
2021/08/22 06:34:26;;;;;;;53.22;35.17;;;;;;;;;;5025569;28;20033;-95
2021/08/22 06:36:53;;;;;;;37.85;23.17;;;;;;;;;;5023450;28;20026;-92
2021/08/22 06:39:19;;;;;;;33.88;19.27;;;;;;;;;;5023420;28;20053;-89
2021/08/22 06:41:45;;;;;;;33.53;20.50;;;;;;;;;;5040800;28;20026;-92
2021/08/22 06:44:13;;;;;;;30.30;17.30;;;;;;;;;;5022984;28;20432;-93
2021/08/22 06:46:39;;;;;;;44.35;26.65;;;;;;;;;;5040707;28;20108;-91
2021/08/22 06:49:05;;;;;;;31.08;14.73;;;;;;;;;;5023134;28;20018;-91
2021/08/22 06:51:31;;;;;;;40.75;27.80;;;;;;;;;;5023137;28;20021;-94
2021/08/22 06:54:03;;;;;;;28.02;16.88;;;;;;;;;;5024509;28;20107;-96
2021/08/22 06:56:30;;;;;;;28.55;16.85;;;;;;;;;;5041235;28;20021;-89
2021/08/22 06:58:56;;;;;;;23.33;13.90;;;;;;;;;;5040488;28;20122;-88
2021/08/22 07:01:22;;;;;;;20.67;12.30;;;;;;;;;;5040497;28;20341;-88
2021/08/22 07:03:48;;;;;;;17.67;11.02;;;;;;;;;;5039972;28;20028;-90
2021/08/22 07:06:15;;;;;;;20.52;13.77;;;;;;;;;;5040092;28;20120;-95
2021/08/22 07:08:41;;;;;;;41.72;24.80;;;;;;;;;;5039559;28;20117;-93
2021/08/22 07:11:07;;;;;;;24.15;15.13;;;;;;;;;;5040909;28;20029;-91
2021/08/22 07:13:33;;;;;;;47.75;31.65;;;;;;;;;;5040702;28;20132;-93
2021/08/22 07:15:59;;;;;;;20.95;10.30;;;;;;;;;;5043590;28;20534;-92
2021/08/22 07:18:25;;;;;;;101.40;75.32;;;;;;;;;;5040455;28;20024;-95
2021/08/22 07:20:51;;;;;;;176.30;131.75;;;;;;;;;;5040645;28;20075;-95
2021/08/22 07:23:17;;;;;;;138.18;106.20;;;;;;;;;;5040767;28;20021;-94
2021/08/22 07:25:44;;;;;;;76.63;53.58;;;;;;;;;;5039767;28;20026;-90
2021/08/22 07:28:10;;;;;;;108.38;78.75;;;;;;;;;;5039007;28;20025;-89
2021/08/22 07:30:36;;;;;;;61.47;42.55;;;;;;;;;;5038568;28;20301;-90
2021/08/22 07:33:03;;;;;;;68.70;49.80;;;;;;;;;;5039056;28;20045;-90
2021/08/22 07:35:29;;;;;;;19.45;10.00;;;;;;;;;;5038857;28;20028;-89
2021/08/22 07:37:55;;;;;;;14.10;9.15;;;;;;;;;;5038846;28;20028;-92
2021/08/22 07:40:21;;;;;;;21.13;10.23;;;;;;;;;;5038629;28;20026;-91
2021/08/22 07:42:47;;;;;;;15.07;8.73;;;;;;;;;;5038310;28;20052;-95
2021/08/22 07:45:14;;;;;;;16.75;4.90;;;;;;;;;;5038836;28;20034;-93
2021/08/22 07:47:40;;;;;;;18.85;6.82;;;;;;;;;;5038980;28;20105;-92
2021/08/22 07:50:06;;;;;;;13.05;5.63;;;;;;;;;;5039585;28;20021;-93
2021/08/22 07:52:32;;;;;;;13.95;5.20;;;;;;;;;;5039501;28;20388;-94
2021/08/22 07:54:58;;;;;;;11.82;5.68;;;;;;;;;;5039514;28;20029;-93
2021/08/22 07:57:24;;;;;;;7.82;4.93;;;;;;;;;;5039559;28;20045;-93
2021/08/22 07:59:50;;;;;;;14.15;5.85;;;;;;;;;;5040645;28;20067;-95
2021/08/22 08:02:16;;;;;;;9.07;4.72;;;;;;;;;;5039774;28;20120;-92
2021/08/22 08:04:42;;;;;;;11.32;4.90;;;;;;;;;;5039327;28;20025;-94
2021/08/22 08:07:08;;;;;;;7.57;4.95;;;;;;;;;;5040622;28;20017;-92
2021/08/22 08:09:34;;;;;;;14.88;5.05;;;;;;;;;;5038148;28;20028;-92
2021/08/22 08:12:01;;;;;;;8.95;4.75;;;;;;;;;;5037694;28;20107;-93
2021/08/22 08:14:29;;;;;;;19.17;7.53;;;;;;;;;;5039448;28;20088;-96
2021/08/22 08:22:15;;;;;;;19.88;6.57;;;;;;;;;;5136294;22;20087;-96
2021/08/22 08:24:41;;;;;;;12.25;6.45;;;;;;;;;;5098939;28;20030;-93
2021/08/22 08:27:07;;;;;;;12.48;5.20;;;;;;;;;;5099206;28;20016;-93
2021/08/22 08:29:36;;;;;;;13.15;4.75;;;;;;;;;;5098491;28;20035;-92
2021/08/22 08:32:02;;;;;;;13.35;4.35;;;;;;;;;;5098974;28;20043;-90
2021/08/22 08:34:28;;;;;;;20.20;11.65;;;;;;;;;;5100729;28;20040;-92
2021/08/22 08:36:54;;;;;;;17.55;6.25;;;;;;;;;;5081798;28;20040;-94
2021/08/22 08:39:22;;;;;;;32.40;14.90;;;;;;;;;;5077650;28;20024;-92
2021/08/22 08:45:13;;;;;;;14.90;5.35;;;;;;;;;;5091378;28;20081;-90
2021/08/22 08:47:41;;;;;;;12.10;4.80;;;;;;;;;;5079966;28;20029;-94
2021/08/22 08:50:13;;;;;;;10.18;4.07;;;;;;;;;;5078850;28;20028;-93
2021/08/22 08:52:52;;;;;;;7.45;3.78;;;;;;;;;;5087243;28;20035;-90
2021/08/22 08:55:21;;;;;;;7.85;4.53;;;;;;;;;;5080734;28;20032;-96
2021/08/22 08:57:47;;;;;;;5.85;3.83;;;;;;;;;;5080044;28;20047;-94
2021/08/22 09:00:14;;;;;;;7.07;3.78;;;;;;;;;;5078935;28;20085;-94
2021/08/22 09:02:40;;;;;;;12.38;4.22;;;;;;;;;;5101777;28;20027;-94
2021/08/22 09:05:15;;;;;;;9.88;4.05;;;;;;;;;;5086189;28;20051;-94
2021/08/22 09:08:02;;;;;;;7.55;3.65;;;;;;;;;;5080598;28;20108;-96
2021/08/22 09:11:05;;;;;;;6.60;3.50;;;;;;;;;;5080684;28;20005;-94
2021/08/22 09:13:49;;;;;;;13.02;4.47;;;;;;;;;;5078508;28;20422;-88
2021/08/22 09:16:34;;;;;;;5.30;3.50;;;;;;;;;;5077625;28;20031;-94
2021/08/22 09:19:03;;;;;;;6.18;3.30;;;;;;;;;;5080550;28;20331;-92
2021/08/22 09:21:48;;;;;;;6.45;3.20;;;;;;;;;;5091698;28;20063;-95
2021/08/22 09:24:32;;;;;;;7.32;3.35;;;;;;;;;;5097105;28;20044;-83
2021/08/22 09:27:17;;;;;;;8.80;4.22;;;;;;;;;;5092279;28;20021;-84
2021/08/22 09:30:01;;;;;;;6.10;3.05;;;;;;;;;;5092834;28;20039;-83
2021/08/22 09:32:31;;;;;;;5.85;3.70;;;;;;;;;;5091055;28;20051;-83
2021/08/22 09:35:15;;;;;;;6.88;3.88;;;;;;;;;;5097353;28;20020;-83
2021/08/22 09:37:47;;;;;;;4.30;2.75;;;;;;;;;;5097683;28;20107;-84
2021/08/22 09:40:32;;;;;;;6.00;3.38;;;;;;;;;;5096463;28;20306;-83
2021/08/22 09:43:17;;;;;;;6.35;3.83;;;;;;;;;;5096313;28;20070;-84
2021/08/22 09:46:01;;;;;;;5.43;3.10;;;;;;;;;;5097556;28;20345;-84
2021/08/22 09:48:31;;;;;;;8.13;3.70;;;;;;;;;;5096280;28;20023;-84
2021/08/22 09:51:29;;;;;;;8.82;3.50;;;;;;;;;;5097463;28;20028;-83
2021/08/22 09:54:13;;;;;;;10.85;4.85;;;;;;;;;;5097097;28;20405;-84
2021/08/22 09:56:58;;;;;;;10.95;4.70;;;;;;;;;;5095833;28;20039;-83
2021/08/22 09:59:30;;;;;;;6.45;3.45;;;;;;;;;;5096630;28;20073;-82
2021/08/22 10:02:05;;;;;;;5.45;3.42;;;;;;;;;;5094951;28;20028;-83
2021/08/22 10:04:40;;;;;;;7.07;3.50;;;;;;;;;;5095033;28;20028;-83
2021/08/22 10:07:09;;;;;;;4.10;3.40;;;;;;;;;;5096131;28;20511;-83
2021/08/22 10:09:49;;;;;;;6.15;3.35;;;;;;;;;;5095853;28;20099;-82
2021/08/22 10:12:16;;;;;;;6.20;3.45;;;;;;;;;;5096343;28;20016;-83
2021/08/22 10:14:42;;;;;;;8.18;3.10;;;;;;;;;;5097012;28;20418;-84
2021/08/22 10:17:16;;;;;;;7.95;3.40;;;;;;;;;;5096907;28;20024;-83
2021/08/22 10:19:49;;;;;;;7.10;3.40;;;;;;;;;;5096026;28;20065;-84
2021/08/22 10:22:19;;;;;;;10.52;3.70;;;;;;;;;;5096692;28;20114;-84
2021/08/22 10:24:45;;;;;;;6.15;3.10;;;;;;;;;;5096874;28;20024;-83
2021/08/22 10:27:50;;;;;;;5.20;3.13;;;;;;;;;;5097171;28;20024;-84
2021/08/22 10:30:23;;;;;;;7.82;3.30;;;;;;;;;;5015279;28;20030;-83
2021/08/22 10:32:58;;;;;;;5.03;3.28;;;;;;;;;;5015266;28;20030;-83
2021/08/22 10:35:28;;;;;;;6.72;3.30;;;;;;;;;;5015124;28;20037;-83
2021/08/22 10:37:54;;;;;;;7.45;3.33;;;;;;;;;;5014938;28;20065;-83
2021/08/22 10:40:27;;;;;;;6.45;4.15;;;;;;;;;;5015016;28;20026;-83
2021/08/22 10:42:56;;;;;;;5.47;3.13;;;;;;;;;;5015164;28;20161;-83
2021/08/22 10:45:37;;;;;;;4.32;2.70;;;;;;;;;;5015098;28;20092;-83
2021/08/22 10:48:03;;;;;;;3.60;2.95;;;;;;;;;;5016761;28;20139;-83
2021/08/22 10:50:29;;;;;;;5.82;3.13;;;;;;;;;;5002057;28;20034;-83
2021/08/22 10:53:15;;;;;;;4.28;3.13;;;;;;;;;;5018554;28;20416;-84
2021/08/22 10:55:44;;;;;;;3.55;2.85;;;;;;;;;;5002184;28;20038;-84
2021/08/22 10:58:10;;;;;;;5.10;2.70;;;;;;;;;;5002190;28;20072;-83
2021/08/22 11:00:38;;;;;;;8.35;4.35;;;;;;;;;;5046631;28;20036;-84
2021/08/22 11:03:05;;;;;;;6.75;3.50;;;;;;;;;;5100273;28;20032;-84
2021/08/22 11:05:32;;;;;;;5.03;2.80;;;;;;;;;;5100328;28;20043;-84
2021/08/22 11:08:14;;;;;;;3.08;2.63;;;;;;;;;;5098968;28;20052;-83
2021/08/22 11:10:57;;;;;;;3.70;2.90;;;;;;;;;;5100042;28;20099;-83
2021/08/22 11:13:23;;;;;;;10.38;3.30;;;;;;;;;;5099000;28;20020;-84
2021/08/22 11:15:49;;;;;;;4.90;3.03;;;;;;;;;;5100072;28;20032;-83
2021/08/22 11:18:21;;;;;;;4.25;2.70;;;;;;;;;;5099547;28;20024;-82
2021/08/22 11:20:47;;;;;;;3.50;2.92;;;;;;;;;;5099640;28;20139;-83
2021/08/22 11:23:17;;;;;;;4.50;2.80;;;;;;;;;;5098802;28;20071;-83
2021/08/22 11:25:48;;;;;;;3.25;2.92;;;;;;;;;;5098249;28;20032;-83
2021/08/22 11:28:16;;;;;;;3.80;2.65;;;;;;;;;;5099734;28;20028;-83
2021/08/22 11:30:43;;;;;;;5.40;2.92;;;;;;;;;;5099884;28;20061;-83
2021/08/22 11:33:09;;;;;;;5.60;3.10;;;;;;;;;;5099613;28;20418;-83
2021/08/22 11:35:39;;;;;;;5.28;2.75;;;;;;;;;;5099524;28;20299;-83
2021/08/22 11:38:06;;;;;;;4.90;2.78;;;;;;;;;;5099718;28;20070;-83
2021/08/22 11:40:33;;;;;;;3.67;2.75;;;;;;;;;;5098950;28;20066;-83
2021/08/22 11:43:00;;;;;;;3.10;2.40;;;;;;;;;;5098539;28;20050;-82
2021/08/22 11:45:28;;;;;;;6.55;2.80;;;;;;;;;;5099632;28;20020;-84
2021/08/22 11:47:55;;;;;;;3.95;2.95;;;;;;;;;;5098096;28;20032;-83
2021/08/22 11:50:23;;;;;;;4.53;2.97;;;;;;;;;;5098277;28;20402;-83
2021/08/22 11:52:51;;;;;;;5.07;2.97;;;;;;;;;;5099276;28;20059;-83
2021/08/22 11:55:19;;;;;;;4.30;2.78;;;;;;;;;;5099064;28;20417;-83
2021/08/22 11:57:45;;;;;;;4.28;2.88;;;;;;;;;;5099101;28;20035;-83
2021/08/22 12:00:16;;;;;;;4.20;3.00;;;;;;;;;;5097654;28;20036;-84
2021/08/22 12:03:15;;;;;;;5.75;3.05;;;;;;;;;;5099110;28;20074;-84
2021/08/22 12:05:54;;;;;;;4.57;2.80;;;;;;;;;;5016986;28;20116;-83
2021/08/22 12:08:20;;;;;;;4.63;2.75;;;;;;;;;;5017137;28;20117;-83
2021/08/22 12:10:47;;;;;;;4.18;2.97;;;;;;;;;;5000715;28;20022;-84
2021/08/22 12:13:14;;;;;;;4.03;3.08;;;;;;;;;;5017228;28;20218;-84
2021/08/22 12:15:40;;;;;;;5.00;2.58;;;;;;;;;;5017304;28;20463;-83
2021/08/22 12:18:25;;;;;;;4.68;3.05;;;;;;;;;;5017152;28;20045;-84
2021/08/22 12:20:52;;;;;;;5.82;3.53;;;;;;;;;;5000307;28;20503;-84
2021/08/22 12:23:27;;;;;;;5.63;3.03;;;;;;;;;;5016937;28;20089;-84
2021/08/22 12:25:53;;;;;;;3.13;2.75;;;;;;;;;;5000291;28;20029;-84
2021/08/22 12:28:20;;;;;;;9.45;2.97;;;;;;;;;;5016850;28;20114;-84
2021/08/22 12:30:50;;;;;;;3.80;2.90;;;;;;;;;;5016886;28;20033;-84
2021/08/22 12:33:28;;;;;;;4.90;3.00;;;;;;;;;;5016864;28;20421;-84
2021/08/22 12:36:13;;;;;;;3.15;2.80;;;;;;;;;;5016839;28;20367;-84
2021/08/22 12:38:40;;;;;;;5.55;3.53;;;;;;;;;;5016808;28;20026;-84
2021/08/22 12:41:25;;;;;;;3.90;2.80;;;;;;;;;;5041777;28;20036;-83
2021/08/22 12:43:52;;;;;;;4.80;2.97;;;;;;;;;;5098263;28;20325;-83
2021/08/22 12:46:18;;;;;;;4.85;3.00;;;;;;;;;;5097297;28;20059;-84
2021/08/22 12:48:44;;;;;;;5.72;3.17;;;;;;;;;;5096932;28;20032;-83
2021/08/22 12:51:11;;;;;;;6.25;3.35;;;;;;;;;;5096891;28;20046;-83
2021/08/22 12:53:37;;;;;;;4.68;3.63;;;;;;;;;;5098048;28;20059;-83
2021/08/22 12:56:04;;;;;;;4.97;2.95;;;;;;;;;;5096903;28;20444;-83
2021/08/22 12:58:30;;;;;;;5.80;3.22;;;;;;;;;;5098079;28;20031;-83
2021/08/22 13:00:59;;;;;;;7.07;3.60;;;;;;;;;;5096914;28;20028;-84
2021/08/22 13:03:25;;;;;;;5.78;2.92;;;;;;;;;;5098332;28;20023;-91
2021/08/22 13:05:51;;;;;;;4.35;2.90;;;;;;;;;;5106338;28;20052;-92
2021/08/22 13:08:17;;;;;;;6.43;2.97;;;;;;;;;;5098379;28;20020;-95
2021/08/22 13:13:49;;;;;;;5.70;3.10;;;;;;;;;;5097377;28;20090;-94
2021/08/22 13:16:15;;;;;;;5.20;3.05;;;;;;;;;;5090759;28;20025;-92
2021/08/22 13:18:43;;;;;;;4.65;3.28;;;;;;;;;;5095191;28;20039;-86
2021/08/22 13:21:11;;;;;;;7.78;3.13;;;;;;;;;;5097632;28;20043;-86
2021/08/22 13:23:38;;;;;;;5.43;2.92;;;;;;;;;;5097068;28;20029;-85
2021/08/22 13:26:04;;;;;;;4.32;2.95;;;;;;;;;;5097644;28;20063;-85
2021/08/22 13:28:31;;;;;;;4.63;3.33;;;;;;;;;;5098568;28;20058;-86
2021/08/22 13:30:57;;;;;;;7.50;5.97;;;;;;;;;;5097436;28;20064;-87
2021/08/22 13:33:23;;;;;;;8.80;5.43;;;;;;;;;;5098540;28;20433;-87
2021/08/22 13:35:49;;;;;;;7.80;5.22;;;;;;;;;;5097487;28;20024;-86
2021/08/22 13:38:16;;;;;;;6.07;3.60;;;;;;;;;;5099154;28;20025;-87
2021/08/22 13:40:42;;;;;;;8.40;5.15;;;;;;;;;;5099033;28;20048;-87
2021/08/22 13:43:09;;;;;;;9.05;3.80;;;;;;;;;;5099003;28;20062;-86
2021/08/22 13:45:35;;;;;;;6.15;5.15;;;;;;;;;;5097794;28;20043;-86
2021/08/22 13:48:01;;;;;;;10.35;5.72;;;;;;;;;;5098356;28;20430;-85
2021/08/22 13:50:27;;;;;;;6.53;4.70;;;;;;;;;;5099060;28;20035;-85
2021/08/22 13:52:54;;;;;;;7.03;4.82;;;;;;;;;;5098949;28;20024;-86
2021/08/22 13:55:45;;;;;;;7.25;4.18;;;;;;;;;;5097865;28;20111;-87
2021/08/22 13:58:11;;;;;;;9.82;4.22;;;;;;;;;;5096527;28;20484;-86
2021/08/22 14:00:41;;;;;;;8.57;5.78;;;;;;;;;;5096614;28;20058;-88
2021/08/22 14:03:07;;;;;;;11.30;7.00;;;;;;;;;;5097850;28;20066;-86
2021/08/22 14:05:35;;;;;;;5.30;3.97;;;;;;;;;;5097683;28;20024;-87
2021/08/22 14:08:01;;;;;;;7.20;4.40;;;;;;;;;;5096845;28;20028;-88
2021/08/22 14:13:31;;;;;;;6.40;3.85;;;;;;;;;;5097827;28;20366;-87
2021/08/22 14:15:57;;;;;;;5.55;3.78;;;;;;;;;;5096420;28;20464;-87
2021/08/22 14:18:23;;;;;;;6.93;4.57;;;;;;;;;;5097443;28;20024;-86
2021/08/22 14:20:49;;;;;;;6.22;5.07;;;;;;;;;;5097219;28;20398;-86
2021/08/22 14:23:15;;;;;;;9.48;5.47;;;;;;;;;;5099637;28;20085;-85
2021/08/22 14:25:42;;;;;;;6.82;4.10;;;;;;;;;;5101189;28;20111;-85
2021/08/22 14:28:08;;;;;;;8.93;4.78;;;;;;;;;;5101338;28;20054;-85
2021/08/22 14:30:34;;;;;;;6.63;5.95;;;;;;;;;;5101260;28;20028;-85
2021/08/22 14:33:00;;;;;;;9.82;7.13;;;;;;;;;;5101051;28;20024;-85
2021/08/22 14:35:28;;;;;;;8.98;5.93;;;;;;;;;;5100705;28;20317;-85
2021/08/22 14:37:54;;;;;;;6.60;4.97;;;;;;;;;;5099982;28;20024;-84
2021/08/22 14:40:20;;;;;;;5.95;3.83;;;;;;;;;;5101043;28;20020;-85
2021/08/22 14:42:46;;;;;;;9.38;4.97;;;;;;;;;;5101214;28;20040;-85
2021/08/22 14:45:12;;;;;;;7.40;5.75;;;;;;;;;;5100524;28;20030;-86
2021/08/22 14:47:39;;;;;;;7.57;4.88;;;;;;;;;;5100616;28;20036;-86
2021/08/22 14:50:05;;;;;;;3.67;3.08;;;;;;;;;;5100462;28;20353;-86
2021/08/22 14:52:31;;;;;;;6.63;5.45;;;;;;;;;;5100833;28;20027;-87
2021/08/22 14:54:57;;;;;;;11.43;7.13;;;;;;;;;;5099756;28;20119;-86